createdAt,value
2023-05-03T00:00:02.423Z,101628.50
2023-05-03T00:04:07.814Z,101625.43
2023-05-03T00:08:06.295Z,101624.83
2023-05-03T00:12:07.634Z,101620.40
2023-05-03T00:16:06.282Z,101624.02
2023-05-03T00:20:07.828Z,101624.92
2023-05-03T00:24:06.164Z,101623.93
2023-05-03T00:28:07.700Z,101622.23
2023-05-03T00:32:05.192Z,101623.17
2023-05-03T00:36:06.796Z,101625.95
2023-05-03T00:40:05.575Z,101624.89
2023-05-03T00:44:07.165Z,101625.72
2023-05-03T00:48:06.388Z,101627.77
2023-05-03T00:52:08.084Z,101624.98
2023-05-03T00:56:06.233Z,101626.33
2023-05-03T01:00:07.969Z,101625.47
2023-05-03T01:04:06.381Z,101621.15
2023-05-03T01:08:08.130Z,101618.91
2023-05-03T01:12:06.673Z,101616.35
2023-05-03T01:16:02.472Z,101617.48
2023-05-03T01:20:02.038Z,101612.16
2023-05-03T01:23:57.467Z,101609.63
2023-05-03T01:27:56.639Z,101607.67
2023-05-03T01:31:52.799Z,101604.27
2023-05-03T01:35:52.132Z,101607.45
2023-05-03T01:39:47.509Z,101603.08
2023-05-03T01:43:46.416Z,101602.81
2023-05-03T01:47:43.727Z,101602.25
2023-05-03T01:51:43.299Z,101598.30
2023-05-03T01:55:39.308Z,101600.86
2023-05-03T01:59:38.627Z,101599.51
2023-05-03T02:03:34.741Z,101599.11
2023-05-03T02:07:34.091Z,101598.16
2023-05-03T02:11:29.663Z,101595.08
2023-05-03T02:15:29.201Z,101593.33
2023-05-03T02:19:25.626Z,101597.59
2023-05-03T02:23:25.201Z,101600.85
2023-05-03T02:27:21.990Z,101600.39
2023-05-03T02:31:21.127Z,101599.21
2023-05-03T02:35:16.663Z,101599.63
2023-05-03T02:39:15.703Z,101600.93
2023-05-03T02:43:10.446Z,101599.61
2023-05-03T02:47:10.505Z,101597.00
2023-05-03T02:51:08.781Z,101598.59
2023-05-03T02:55:08.156Z,101602.17
2023-05-03T02:59:03.826Z,101601.67
2023-05-03T03:03:03.501Z,101600.64
2023-05-03T03:07:08.441Z,101596.36
2023-05-03T03:11:10.662Z,101594.45
2023-05-03T03:15:09.471Z,101599.67
2023-05-03T03:19:11.491Z,101597.80
2023-05-03T03:23:09.601Z,101597.03
2023-05-03T03:27:03.691Z,101596.39
2023-05-03T03:30:49.298Z,101599.13
2023-05-03T03:34:38.385Z,101597.08
2023-05-03T03:38:23.689Z,101603.15
2023-05-03T03:42:12.172Z,101602.90
2023-05-03T03:45:57.319Z,101603.23
2023-05-03T03:49:49.661Z,101609.91
2023-05-03T03:53:47.366Z,101611.05
2023-05-03T03:57:47.702Z,101608.39
2023-05-03T04:01:43.610Z,101613.63
2023-05-03T04:05:46.594Z,101617.04
2023-05-03T04:09:46.894Z,101610.86
2023-05-03T04:13:42.993Z,101614.08
2023-05-03T04:17:42.719Z,101614.59
2023-05-03T04:21:36.701Z,101613.31
2023-05-03T04:25:21.828Z,101608.23
2023-05-03T04:29:12.534Z,101615.17
2023-05-03T04:32:58.582Z,101617.45
2023-05-03T04:36:44.408Z,101614.38
2023-05-03T04:40:30.013Z,101617.15
2023-05-03T04:44:27.962Z,101616.42
2023-05-03T04:48:21.534Z,101614.13
2023-05-03T04:52:13.952Z,101610.41
2023-05-03T04:56:11.613Z,101612.18
2023-05-03T05:00:12.756Z,101610.02
2023-05-03T05:04:12.524Z,101615.40
2023-05-03T05:08:16.891Z,101612.84
2023-05-03T05:12:18.472Z,101610.76
2023-05-03T05:16:18.739Z,101604.98
2023-05-03T05:20:19.748Z,101603.73
2023-05-03T05:24:21.694Z,101609.17
2023-05-03T05:28:21.642Z,101604.13
2023-05-03T05:32:18.247Z,101604.97
2023-05-03T05:36:17.606Z,101604.55
2023-05-03T05:40:15.631Z,101596.41
2023-05-03T05:44:22.589Z,101602.25
2023-05-03T05:48:19.747Z,101596.02
2023-05-03T05:52:19.819Z,101595.73
2023-05-03T05:56:17.651Z,101597.31
2023-05-03T06:00:17.665Z,101595.82
2023-05-03T06:04:15.619Z,101593.44
2023-05-03T06:08:14.835Z,101592.55
2023-05-03T06:12:09.901Z,101592.90
2023-05-03T06:16:12.771Z,101586.59
2023-05-03T06:20:08.268Z,101583.73
2023-05-03T06:24:07.962Z,101589.85
2023-05-03T06:28:03.061Z,101585.92
2023-05-03T06:32:04.605Z,101589.90
2023-05-03T06:36:00.990Z,101591.10
2023-05-03T06:40:00.132Z,101590.52
2023-05-03T06:43:56.233Z,101590.23
2023-05-03T06:47:55.994Z,101590.12
2023-05-03T06:51:51.933Z,101590.87
2023-05-03T06:55:51.869Z,101584.80
2023-05-03T06:59:47.023Z,101585.17
2023-05-03T07:03:46.120Z,101583.45
2023-05-03T07:07:51.130Z,101583.89
2023-05-03T07:11:52.316Z,101588.70
2023-05-03T07:15:51.055Z,101586.28
2023-05-03T07:19:52.860Z,101595.65
2023-05-03T07:23:50.956Z,101595.06
2023-05-03T07:27:52.532Z,101596.36
2023-05-03T07:31:53.338Z,101593.58
2023-05-03T07:35:55.513Z,101598.63
2023-05-03T07:39:53.968Z,101598.48
2023-05-03T07:43:55.278Z,101598.77
2023-05-03T07:47:54.214Z,101601.63
2023-05-03T07:51:55.965Z,101595.58
2023-05-03T07:55:53.861Z,101588.34
2023-05-03T07:59:55.363Z,101581.38
2023-05-03T08:03:54.495Z,101579.66
2023-05-03T08:07:56.594Z,101572.05
2023-05-03T08:11:55.136Z,101570.82
2023-05-03T08:15:56.552Z,101574.13
2023-05-03T08:19:55.116Z,101571.45
2023-05-03T08:23:56.898Z,101572.98
2023-05-03T08:27:54.971Z,101570.95
2023-05-03T08:31:56.573Z,101574.61
2023-05-03T08:35:55.212Z,101574.27
2023-05-03T08:39:56.599Z,101570.77
2023-05-03T08:43:55.284Z,101560.73
2023-05-03T08:47:56.897Z,101560.64
2023-05-03T08:51:55.195Z,101560.85
2023-05-03T08:55:57.122Z,101557.24
2023-05-03T08:59:52.178Z,101554.91
2023-05-03T09:03:53.680Z,101546.90
2023-05-03T09:07:52.109Z,101548.42
2023-05-03T09:11:53.678Z,101551.05
2023-05-03T09:15:54.272Z,101545.11
2023-05-03T09:19:55.693Z,101545.21
2023-05-03T09:23:54.099Z,101545.82
2023-05-03T09:27:55.716Z,101542.84
2023-05-03T09:31:54.280Z,101542.84
2023-05-03T09:35:55.597Z,101536.70
2023-05-03T09:39:54.193Z,101536.20
2023-05-03T09:43:55.735Z,101533.07
2023-05-03T09:47:54.213Z,101531.36
2023-05-03T09:51:48.804Z,101527.88
2023-05-03T09:55:47.129Z,101533.05
2023-05-03T09:59:48.644Z,101525.83
2023-05-03T10:03:47.296Z,101523.63
2023-05-03T10:07:48.790Z,101521.71
2023-05-03T10:11:47.236Z,101514.36
2023-05-03T10:15:48.814Z,101514.59
2023-05-03T10:19:43.475Z,101510.88
2023-05-03T10:23:44.694Z,101506.09
2023-05-03T10:27:43.263Z,101504.85
2023-05-03T10:31:43.991Z,101507.20
2023-05-03T10:35:42.341Z,101506.71
2023-05-03T10:39:41.711Z,101496.14
2023-05-03T10:43:39.875Z,101497.55
2023-05-03T10:47:39.719Z,101497.23
2023-05-03T10:51:37.678Z,101497.15
2023-05-03T10:55:35.493Z,101496.30
2023-05-03T10:59:34.722Z,101493.00
2023-05-03T11:03:32.390Z,101495.25
2023-05-03T11:07:24.584Z,101488.86
2023-05-03T11:11:26.156Z,101488.63
2023-05-03T11:15:21.749Z,101487.64
2023-05-03T11:19:21.305Z,101483.29
2023-05-03T11:23:16.684Z,101481.89
2023-05-03T11:27:16.063Z,101476.00
2023-05-03T11:31:11.561Z,101475.73
2023-05-03T11:35:08.828Z,101475.15
2023-05-03T11:39:04.754Z,101465.66
2023-05-03T11:42:55.333Z,101458.05
2023-05-03T11:46:40.192Z,101456.77
2023-05-03T11:50:25.303Z,101451.23
2023-05-03T11:54:25.289Z,101443.19
2023-05-03T11:58:29.098Z,101445.69
2023-05-03T12:02:24.935Z,101440.20
2023-05-03T12:06:24.385Z,101438.89
2023-05-03T12:10:23.598Z,101434.50
2023-05-03T12:14:28.929Z,101424.27
2023-05-03T12:18:24.810Z,101421.92
2023-05-03T12:22:26.366Z,101420.41
2023-05-03T12:26:19.043Z,101413.02
2023-05-03T12:30:04.534Z,101407.61
2023-05-03T12:34:09.171Z,101405.29
2023-05-03T12:37:55.954Z,101400.98
2023-05-03T12:45:40.962Z,101389.83
2023-05-03T12:49:22.675Z,101388.12
2023-05-03T12:53:19.146Z,101391.95
2023-05-03T12:57:23.423Z,101384.97
2023-05-03T13:02:05.095Z,101380.55
2023-05-03T13:05:35.881Z,101379.67
2023-05-03T13:10:12.256Z,101381.86
2023-05-03T13:13:38.460Z,101377.55
2023-05-03T13:17:27.117Z,101372.05
2023-05-03T13:21:12.181Z,101373.33
2023-05-03T13:25:07.831Z,101372.13
2023-05-03T13:29:07.146Z,101366.77
2023-05-03T13:33:11.009Z,101364.17
2023-05-03T13:37:10.183Z,101355.31
2023-05-03T13:41:05.682Z,101359.55
2023-05-03T13:45:02.540Z,101351.48
2023-05-03T13:48:57.885Z,101345.55
2023-05-03T13:52:54.943Z,101345.20
2023-05-03T13:56:51.090Z,101347.88
2023-05-03T14:00:50.320Z,101347.51
2023-05-03T14:04:45.878Z,101350.40
2023-05-03T14:08:45.155Z,101344.73
2023-05-03T14:12:41.144Z,101342.85
2023-05-03T14:16:42.243Z,101333.62
2023-05-03T14:20:38.024Z,101338.05
2023-05-03T14:24:37.266Z,101334.86
2023-05-03T14:28:32.992Z,101335.89
2023-05-03T14:32:32.844Z,101334.23
2023-05-03T14:36:29.147Z,101337.15
2023-05-03T14:40:28.324Z,101330.41
2023-05-03T14:44:23.705Z,101329.23
2023-05-03T14:48:22.772Z,101334.05
2023-05-03T14:52:17.905Z,101340.05
2023-05-03T14:56:16.787Z,101342.11
2023-05-03T15:00:11.983Z,101344.70
2023-05-03T15:04:11.366Z,101343.34
2023-05-03T15:08:07.025Z,101339.55
2023-05-03T15:12:05.924Z,101340.70
2023-05-03T15:16:01.230Z,101343.20
2023-05-03T15:20:00.690Z,101346.02
2023-05-03T15:23:55.803Z,101341.80
2023-05-03T15:27:55.103Z,101341.11
2023-05-03T15:31:51.217Z,101345.15
2023-05-03T15:35:50.609Z,101343.51
2023-05-03T15:39:46.144Z,101346.14
2023-05-03T15:43:45.218Z,101346.70
2023-05-03T15:47:41.194Z,101349.59
2023-05-03T15:51:40.801Z,101348.66
2023-05-03T15:55:36.955Z,101347.67
2023-05-03T15:59:36.034Z,101351.48
2023-05-03T16:03:31.056Z,101352.63
2023-05-03T16:07:30.601Z,101361.02
2023-05-03T16:11:26.171Z,101356.05
2023-05-03T16:15:25.781Z,101357.39
2023-05-03T16:19:21.535Z,101356.98
2023-05-03T16:23:20.630Z,101360.52
2023-05-03T16:27:16.190Z,101363.61
2023-05-03T16:31:16.030Z,101365.90
2023-05-03T16:35:12.471Z,101371.95
2023-05-03T16:39:08.424Z,101374.60
2023-05-03T16:43:07.595Z,101379.33
2023-05-03T16:47:02.886Z,101381.44
2023-05-03T16:51:02.236Z,101385.29
2023-05-03T16:54:57.859Z,101390.48
2023-05-03T16:58:57.260Z,101391.65
2023-05-03T17:02:53.223Z,101397.29
2023-05-03T17:06:52.878Z,101395.77
2023-05-03T17:10:48.382Z,101398.08
2023-05-03T17:14:47.897Z,101402.00
2023-05-03T17:18:43.194Z,101407.98
2023-05-03T17:22:42.829Z,101407.56
2023-05-03T17:26:38.313Z,101411.08
2023-05-03T17:30:37.887Z,101413.64
2023-05-03T17:34:33.350Z,101418.30
2023-05-03T17:38:33.007Z,101424.29
2023-05-03T17:42:28.106Z,101425.40
2023-05-03T17:46:27.186Z,101421.52
2023-05-03T17:50:22.123Z,101427.61
2023-05-03T17:54:21.338Z,101425.39
2023-05-03T17:58:17.594Z,101425.17
2023-05-03T18:02:17.307Z,101432.05
2023-05-03T18:06:13.174Z,101429.55
2023-05-03T18:10:11.983Z,101434.67
2023-05-03T18:14:07.330Z,101435.52
2023-05-03T18:18:06.684Z,101438.79
2023-05-03T18:22:02.271Z,101442.55
2023-05-03T18:26:01.268Z,101443.88
2023-05-03T18:29:56.467Z,101440.91
2023-05-03T18:33:56.051Z,101446.13
2023-05-03T18:37:51.437Z,101447.77
2023-05-03T18:41:50.981Z,101453.94
2023-05-03T18:45:46.470Z,101454.48
2023-05-03T18:49:45.978Z,101455.86
2023-05-03T18:53:41.449Z,101455.39
2023-05-03T18:57:41.043Z,101457.31
2023-05-03T19:01:36.438Z,101461.63
2023-05-03T19:05:35.783Z,101462.73
2023-05-03T19:09:31.402Z,101463.58
2023-05-03T19:13:31.045Z,101458.59
2023-05-03T19:17:26.443Z,101459.83
2023-05-03T19:21:25.725Z,101460.52
2023-05-03T19:25:21.270Z,101457.95
2023-05-03T19:29:20.569Z,101463.31
2023-05-03T19:33:16.601Z,101455.85
2023-05-03T19:37:16.011Z,101461.77
2023-05-03T19:41:11.595Z,101462.29
2023-05-03T19:45:07.523Z,101457.15
2023-05-03T19:49:06.868Z,101461.42
2023-05-03T19:53:02.320Z,101464.95
2023-05-03T19:57:02.397Z,101461.70
2023-05-03T20:00:57.582Z,101460.36
2023-05-03T20:04:56.438Z,101461.19
2023-05-03T20:08:52.395Z,101465.23
2023-05-03T20:12:51.443Z,101464.13
2023-05-03T20:16:46.917Z,101466.54
2023-05-03T20:20:46.617Z,101464.52
2023-05-03T20:24:42.308Z,101462.65
2023-05-03T20:28:41.571Z,101466.09
2023-05-03T20:32:37.930Z,101460.10
2023-05-03T20:36:37.087Z,101462.70
2023-05-03T20:40:32.521Z,101461.36
2023-05-03T20:44:31.955Z,101463.80
2023-05-03T20:48:27.916Z,101462.66
2023-05-03T20:52:27.176Z,101461.23
2023-05-03T20:56:22.787Z,101459.25
2023-05-03T21:00:22.447Z,101461.52
2023-05-03T21:04:17.388Z,101462.55
2023-05-03T21:08:16.560Z,101458.33
2023-05-03T21:12:12.374Z,101460.71
2023-05-03T21:16:11.888Z,101462.05
2023-05-03T21:20:07.731Z,101466.36
2023-05-03T21:24:06.911Z,101467.92
2023-05-03T21:28:02.683Z,101466.52
2023-05-03T21:32:02.182Z,101475.99
2023-05-03T21:35:57.483Z,101478.70
2023-05-03T21:40:01.851Z,101477.23
2023-05-03T21:43:47.919Z,101479.70
2023-05-03T21:47:33.137Z,101479.16
2023-05-03T21:51:18.200Z,101475.87
2023-05-03T21:55:03.395Z,101470.52
2023-05-03T21:58:48.386Z,101472.95
2023-05-03T22:02:33.419Z,101469.95
2023-05-03T22:06:24.366Z,101470.61
2023-05-03T22:10:15.424Z,101471.30
2023-05-03T22:14:08.360Z,101475.21
2023-05-03T22:18:08.466Z,101474.89
2023-05-03T22:22:04.066Z,101477.79
2023-05-03T22:26:02.997Z,101480.80
2023-05-03T22:29:58.736Z,101482.32
2023-05-03T22:33:58.368Z,101483.66
2023-05-03T22:37:54.081Z,101482.59
2023-05-03T22:41:53.229Z,101482.95
2023-05-03T22:45:48.747Z,101482.02
2023-05-03T22:49:33.801Z,101490.12
2023-05-03T22:53:19.112Z,101486.83
2023-05-03T22:57:04.221Z,101493.98
2023-05-03T23:00:49.185Z,101491.20
2023-05-03T23:04:34.354Z,101489.05
2023-05-03T23:08:34.495Z,101492.83
2023-05-03T23:12:36.126Z,101492.48
2023-05-03T23:16:34.558Z,101487.83
2023-05-03T23:20:35.944Z,101483.92
2023-05-03T23:24:34.638Z,101480.89
2023-05-03T23:28:36.092Z,101480.89
2023-05-03T23:32:34.559Z,101477.95
2023-05-03T23:36:36.651Z,101475.65
2023-05-03T23:40:34.652Z,101479.84
2023-05-03T23:44:46.884Z,101476.23
2023-05-03T23:48:53.472Z,101471.19
2023-05-03T23:52:51.641Z,101468.35
2023-05-03T23:56:52.719Z,101465.39
